KROW/ROW METAR and TAF weather

Enter ICAO airport designator
Station Type Date Time Source
KROW METAR 2020/07/06 07:51 UTC NOAA

KROW 060751Z AUTO 00000KT 10SM CLR 22/16 A3003 RMK AO2 SLP096 T02220156


Station Type Date Time Source
KROW Decoded METAR 2020/07/06 07:51 UTC NOAA

ROSWELL INDUSTRIAL AIR CENTR, NM, United States (KROW) 33-18N 104-32W 1112M
Jul 06, 2020 - 03:51 AM EDT / 2020.07.06 0751 UTC
Wind: Calm:0
Visibility: 10 mile(s):0
Sky conditions: clear
Temperature: 72.0 F (22.2 C)
Dew Point: 60.1 F (15.6 C)
Relative Humidity: 66%
Pressure (altimeter): 30.03 in. Hg (1016 hPa)
ob: KROW 060751Z AUTO 00000KT 10SM CLR 22/16 A3003 RMK AO2 SLP096 T02220156
cycle: 8

Station Type Date Time Source
KROW TAF 2020/07/06 06:22 UTC NOAA

TAF KROW 060520Z 0606/0706 36010KT P6SM BKN140
FM061100 01006KT P6SM SCT150
FM062000 06008KT P6SM SCT100

Example: see airport list